createdAt,value
2017-08-09T00:00:31.245Z,62.00
2017-08-09T00:02:59.513Z,62.20
2017-08-09T00:05:27.030Z,62.20
2017-08-09T00:07:54.522Z,62.30
2017-08-09T00:10:22.044Z,62.30
2017-08-09T00:12:49.529Z,62.40
2017-08-09T00:15:17.015Z,62.50
2017-08-09T00:17:45.295Z,62.60
2017-08-09T00:20:13.554Z,62.70
2017-08-09T00:22:41.066Z,62.60
2017-08-09T00:25:08.562Z,62.60
2017-08-09T00:27:36.074Z,62.70
2017-08-09T00:30:03.561Z,62.60
2017-08-09T00:32:31.075Z,62.60
2017-08-09T00:34:58.561Z,62.50
2017-08-09T00:37:26.070Z,62.70
2017-08-09T00:39:53.568Z,62.70
2017-08-09T00:42:21.091Z,62.80
2017-08-09T00:44:49.353Z,62.90
2017-08-09T00:47:16.846Z,62.80
2017-08-09T00:49:44.361Z,62.80
2017-08-09T00:52:11.851Z,62.90
2017-08-09T00:54:40.130Z,62.90
2017-08-09T00:57:08.386Z,62.80
2017-08-09T00:59:35.895Z,62.80
2017-08-09T01:02:03.393Z,63.00
2017-08-09T01:04:30.901Z,62.70
2017-08-09T01:06:58.399Z,62.60
2017-08-09T01:09:25.922Z,62.70
2017-08-09T01:11:53.423Z,62.90
2017-08-09T01:14:20.942Z,63.00
2017-08-09T01:16:48.439Z,63.00
2017-08-09T01:19:15.926Z,63.10
2017-08-09T01:21:44.206Z,62.60
2017-08-09T01:26:46.407Z,63.00
2017-08-09T01:29:13.902Z,63.30
2017-08-09T01:31:41.418Z,63.00
2017-08-09T01:34:09.673Z,63.40
2017-08-09T01:36:37.182Z,63.30
2017-08-09T01:39:04.678Z,63.40
2017-08-09T01:41:32.195Z,63.30
2017-08-09T01:43:59.698Z,63.20
2017-08-09T01:46:27.214Z,63.20
2017-08-09T01:48:54.702Z,63.20
2017-08-09T01:51:22.213Z,63.20
2017-08-09T01:53:49.738Z,62.90
2017-08-09T01:56:17.273Z,63.20
2017-08-09T01:58:44.772Z,63.20
2017-08-09T02:01:12.268Z,63.20
2017-08-09T02:03:39.783Z,63.20
2017-08-09T02:06:07.311Z,63.10
2017-08-09T02:08:34.819Z,63.00
2017-08-09T02:11:03.081Z,63.40
2017-08-09T02:13:30.589Z,63.30
2017-08-09T02:15:58.082Z,63.50
2017-08-09T02:18:25.605Z,63.70
2017-08-09T02:20:53.094Z,63.80
2017-08-09T02:23:20.597Z,63.70
2017-08-09T02:25:48.090Z,63.50
2017-08-09T02:28:15.598Z,63.70
2017-08-09T02:30:43.853Z,63.90
2017-08-09T02:33:11.375Z,63.80
2017-08-09T02:35:38.866Z,63.90
2017-08-09T02:38:06.362Z,63.80
2017-08-09T02:40:34.639Z,63.70
2017-08-09T02:43:02.133Z,63.70
2017-08-09T02:45:29.654Z,63.40
2017-08-09T02:47:57.915Z,63.60
2017-08-09T02:50:25.429Z,63.60
2017-08-09T02:52:52.923Z,63.70
2017-08-09T02:55:20.444Z,63.60
2017-08-09T02:57:47.938Z,63.80
2017-08-09T03:00:15.447Z,63.80
2017-08-09T03:02:42.945Z,63.90
2017-08-09T03:05:10.462Z,63.90
2017-08-09T03:07:37.953Z,63.90
2017-08-09T03:10:05.454Z,63.90
2017-08-09T03:12:33.724Z,64.00
2017-08-09T03:15:01.987Z,64.50
2017-08-09T03:17:29.498Z,63.90
2017-08-09T03:19:56.994Z,63.90
2017-08-09T03:22:24.501Z,63.90
2017-08-09T03:24:51.995Z,63.60
2017-08-09T03:27:19.524Z,63.60
2017-08-09T03:29:47.014Z,63.50
2017-08-09T03:32:14.525Z,63.50
2017-08-09T03:34:42.787Z,63.60
2017-08-09T03:37:11.074Z,64.30
2017-08-09T03:39:39.334Z,63.70
2017-08-09T03:42:06.826Z,63.70
2017-08-09T03:44:34.342Z,63.70
2017-08-09T03:47:01.838Z,63.80
2017-08-09T03:49:29.358Z,63.90
2017-08-09T03:51:56.851Z,63.70
2017-08-09T03:54:24.369Z,63.70
2017-08-09T03:56:51.854Z,63.90
2017-08-09T03:59:20.138Z,63.70
2017-08-09T04:01:48.409Z,64.00
2017-08-09T04:04:16.710Z,63.90
2017-08-09T04:06:44.199Z,63.80
2017-08-09T04:09:11.726Z,64.10
2017-08-09T04:11:39.218Z,63.80
2017-08-09T04:14:07.151Z,63.80
2017-08-09T04:16:34.662Z,63.80
2017-08-09T04:19:02.158Z,64.30
2017-08-09T04:21:30.598Z,64.70
2017-08-09T04:23:58.089Z,64.60
2017-08-09T04:26:26.366Z,65.00
2017-08-09T04:28:53.858Z,65.00
2017-08-09T04:31:21.370Z,64.90
2017-08-09T04:33:48.867Z,64.90
2017-08-09T04:36:16.377Z,64.70
2017-08-09T04:38:43.869Z,64.70
2017-08-09T04:41:12.146Z,64.80
2017-08-09T04:43:40.397Z,64.70
2017-08-09T04:46:07.888Z,64.50
2017-08-09T04:48:35.402Z,64.60
2017-08-09T04:51:02.898Z,64.60
2017-08-09T04:53:31.174Z,64.70
2017-08-09T04:55:59.434Z,64.60
2017-08-09T04:58:26.947Z,64.60
2017-08-09T05:00:54.434Z,64.50
2017-08-09T05:03:21.947Z,64.70
2017-08-09T05:05:49.449Z,64.60
2017-08-09T05:08:16.963Z,64.40
2017-08-09T05:10:44.453Z,64.20
2017-08-09T05:13:11.973Z,64.20
2017-08-09T05:15:39.470Z,64.30
2017-08-09T05:18:06.961Z,64.40
2017-08-09T05:20:34.475Z,64.40
2017-08-09T05:23:01.963Z,64.40
2017-08-09T05:25:29.465Z,64.50
2017-08-09T05:27:56.958Z,64.40
2017-08-09T05:30:24.466Z,64.70
2017-08-09T05:32:52.717Z,64.50
2017-08-09T05:35:20.231Z,64.50
2017-08-09T05:37:47.731Z,64.30
2017-08-09T05:40:15.247Z,64.40
2017-08-09T05:42:42.747Z,64.40
2017-08-09T05:45:10.250Z,64.50
2017-08-09T05:47:37.762Z,65.10
2017-08-09T05:50:05.258Z,65.70
2017-08-09T05:52:33.535Z,66.20
2017-08-09T05:55:01.794Z,66.30
2017-08-09T05:57:29.310Z,66.40
2017-08-09T05:59:56.815Z,66.80
2017-08-09T06:02:24.321Z,67.00
2017-08-09T06:04:51.810Z,67.60
2017-08-09T06:07:19.322Z,67.20
2017-08-09T06:09:46.819Z,66.90
2017-08-09T06:12:14.305Z,66.60
2017-08-09T06:14:41.813Z,66.40
2017-08-09T06:17:09.310Z,65.80
2017-08-09T06:19:36.823Z,65.80
2017-08-09T06:22:04.315Z,65.60
2017-08-09T06:24:31.822Z,65.40
2017-08-09T06:26:59.323Z,65.20
2017-08-09T06:29:26.834Z,65.30
2017-08-09T06:31:55.085Z,65.50
2017-08-09T06:34:22.594Z,65.50
2017-08-09T06:36:50.090Z,65.10
2017-08-09T06:39:17.582Z,65.80
2017-08-09T06:41:45.862Z,67.90
2017-08-09T06:44:14.120Z,67.90
2017-08-09T06:46:41.631Z,67.80
2017-08-09T06:49:09.136Z,67.70
2017-08-09T06:51:36.663Z,67.90
2017-08-09T06:54:04.163Z,67.90
2017-08-09T06:56:32.438Z,67.40
2017-08-09T06:58:59.930Z,67.40
2017-08-09T07:01:27.458Z,66.50
2017-08-09T07:03:55.724Z,65.50
2017-08-09T07:06:23.241Z,65.30
2017-08-09T07:08:50.734Z,64.10
2017-08-09T07:11:18.229Z,63.80
2017-08-09T07:13:45.745Z,63.00
2017-08-09T07:16:13.238Z,62.50
2017-08-09T07:18:40.762Z,62.10
2017-08-09T07:21:08.259Z,62.20
2017-08-09T07:23:35.774Z,62.70
2017-08-09T07:26:03.262Z,63.20
2017-08-09T07:28:31.542Z,62.90
2017-08-09T07:30:59.807Z,62.80
2017-08-09T07:33:27.318Z,62.70
2017-08-09T07:35:54.814Z,61.50
2017-08-09T07:38:22.330Z,61.00
2017-08-09T07:40:49.826Z,61.30
2017-08-09T07:43:17.316Z,61.20
2017-08-09T07:45:45.590Z,58.00
2017-08-09T07:48:13.842Z,57.70
2017-08-09T07:50:41.354Z,57.70
2017-08-09T07:53:08.842Z,57.70
2017-08-09T07:55:36.356Z,58.70
2017-08-09T07:58:04.615Z,58.80
2017-08-09T08:00:32.899Z,57.40
2017-08-09T08:03:01.167Z,57.00
2017-08-09T08:05:29.450Z,56.20
2017-08-09T08:07:57.711Z,58.00
2017-08-09T08:10:25.303Z,57.90
2017-08-09T08:12:52.861Z,58.40
2017-08-09T08:15:20.374Z,58.30
2017-08-09T08:17:47.883Z,58.30
2017-08-09T08:20:15.373Z,58.00
2017-08-09T08:22:42.896Z,56.20
2017-08-09T08:25:10.392Z,55.70
2017-08-09T08:27:37.906Z,55.80
2017-08-09T08:30:06.158Z,56.60
2017-08-09T08:32:33.672Z,56.60
2017-08-09T08:35:01.157Z,56.90
2017-08-09T08:37:28.670Z,55.00
2017-08-09T08:39:56.158Z,55.90
2017-08-09T08:42:23.652Z,56.10
2017-08-09T08:44:51.170Z,56.20
2017-08-09T08:47:18.670Z,54.60
2017-08-09T08:49:46.185Z,54.50
2017-08-09T08:52:13.679Z,55.20
2017-08-09T08:54:41.186Z,55.50
2017-08-09T08:57:08.679Z,54.20
2017-08-09T08:59:36.190Z,53.80
2017-08-09T09:02:04.442Z,55.30
2017-08-09T09:04:31.965Z,55.90
2017-08-09T09:06:59.454Z,54.80
2017-08-09T09:09:26.943Z,54.50
2017-08-09T09:11:54.471Z,53.60
2017-08-09T09:14:22.002Z,53.10
2017-08-09T09:16:49.522Z,53.50
2017-08-09T09:19:17.798Z,54.40
2017-08-09T09:21:46.077Z,53.20
2017-08-09T09:24:13.570Z,53.10
2017-08-09T09:26:41.082Z,54.30
2017-08-09T09:29:08.582Z,54.00
2017-08-09T09:31:36.090Z,53.50
2017-08-09T09:34:03.574Z,53.50
2017-08-09T09:36:31.094Z,53.70
2017-08-09T09:38:58.598Z,54.20
2017-08-09T09:41:26.094Z,52.90
2017-08-09T09:43:53.607Z,52.50
2017-08-09T09:46:21.110Z,53.60
2017-08-09T09:48:48.617Z,53.40
2017-08-09T09:51:16.877Z,53.20
2017-08-09T09:53:44.403Z,53.10
2017-08-09T09:56:11.898Z,53.50
2017-08-09T09:58:40.186Z,53.00
2017-08-09T10:01:07.679Z,52.70
2017-08-09T10:03:35.198Z,52.90
2017-08-09T10:06:03.453Z,53.00
2017-08-09T10:08:30.967Z,53.00
2017-08-09T10:10:58.477Z,52.90
2017-08-09T10:13:25.989Z,53.20
2017-08-09T10:15:53.482Z,52.80
2017-08-09T10:18:21.020Z,52.60
2017-08-09T10:20:48.510Z,52.60
2017-08-09T10:23:15.998Z,52.50
2017-08-09T10:25:43.535Z,52.20
2017-08-09T10:28:11.026Z,51.80
2017-08-09T10:30:38.538Z,51.90
2017-08-09T10:33:06.030Z,52.40
2017-08-09T10:35:34.316Z,52.10
2017-08-09T10:38:01.856Z,52.10
2017-08-09T10:40:29.367Z,52.20
2017-08-09T10:42:56.862Z,52.00
2017-08-09T10:45:24.381Z,52.20
2017-08-09T10:47:51.871Z,52.30
2017-08-09T10:50:19.383Z,52.20
2017-08-09T10:52:46.882Z,51.50
2017-08-09T10:55:14.398Z,51.60
2017-08-09T10:57:41.886Z,51.30
2017-08-09T11:00:09.378Z,51.90
2017-08-09T11:02:36.890Z,51.10
2017-08-09T11:05:04.393Z,51.20
2017-08-09T11:07:31.899Z,51.30
2017-08-09T11:09:59.390Z,50.30
2017-08-09T11:12:26.897Z,51.00
2017-08-09T11:14:55.154Z,50.90
2017-08-09T11:17:22.666Z,50.80
2017-08-09T11:19:50.214Z,50.80
2017-08-09T11:22:17.735Z,50.90
2017-08-09T11:24:46.020Z,50.60
2017-08-09T11:27:13.542Z,50.60
2017-08-09T11:29:41.039Z,50.40
2017-08-09T11:32:09.346Z,49.50
2017-08-09T11:34:36.843Z,50.10
2017-08-09T11:37:04.335Z,49.50
2017-08-09T11:39:32.614Z,50.00
2017-08-09T11:42:00.866Z,49.50
2017-08-09T11:44:28.373Z,49.50
2017-08-09T11:46:55.871Z,50.10
2017-08-09T11:49:23.383Z,50.00
2017-08-09T11:51:50.870Z,50.20
2017-08-09T11:54:18.375Z,50.20
2017-08-09T11:56:45.870Z,50.10
2017-08-09T11:59:13.378Z,50.10
2017-08-09T12:01:40.866Z,50.10
2017-08-09T12:04:08.373Z,49.80
2017-08-09T12:06:35.869Z,49.50
2017-08-09T12:09:04.161Z,49.70
2017-08-09T12:11:31.664Z,49.60
2017-08-09T12:13:59.158Z,49.30
2017-08-09T12:16:27.438Z,49.10
2017-08-09T12:18:54.956Z,49.00
2017-08-09T12:21:22.478Z,49.30
2017-08-09T12:23:49.978Z,48.90
2017-08-09T12:26:17.515Z,48.90
2017-08-09T12:28:45.015Z,48.80
2017-08-09T12:31:12.535Z,48.60
2017-08-09T12:33:40.035Z,48.30
2017-08-09T12:36:07.548Z,48.40
2017-08-09T12:38:35.038Z,48.80
2017-08-09T12:41:02.573Z,49.00
2017-08-09T12:43:30.070Z,48.70
2017-08-09T12:45:57.566Z,48.30
2017-08-09T12:48:25.078Z,48.20
2017-08-09T12:50:52.571Z,48.20
2017-08-09T12:53:20.085Z,47.90
2017-08-09T12:55:47.573Z,48.20
2017-08-09T12:58:15.087Z,47.70
2017-08-09T13:00:42.605Z,48.20
2017-08-09T13:03:10.119Z,48.40
2017-08-09T13:05:37.606Z,48.20
2017-08-09T13:08:05.118Z,48.40
2017-08-09T13:10:32.615Z,48.40
2017-08-09T13:13:00.159Z,48.50
2017-08-09T13:15:27.638Z,48.20
2017-08-09T13:17:55.131Z,48.40
2017-08-09T13:20:22.650Z,48.70
2017-08-09T13:22:50.146Z,48.60
2017-08-09T13:25:17.667Z,48.40
2017-08-09T13:27:45.169Z,48.50
2017-08-09T13:30:12.685Z,49.00
2017-08-09T13:32:40.182Z,48.90
2017-08-09T13:35:07.698Z,49.20
2017-08-09T13:37:35.205Z,49.10
2017-08-09T13:40:02.714Z,49.00
2017-08-09T13:42:30.210Z,49.00
2017-08-09T13:44:57.726Z,49.00
2017-08-09T13:47:25.218Z,48.70
2017-08-09T13:49:53.504Z,48.90
2017-08-09T13:52:21.786Z,48.70
2017-08-09T13:54:49.286Z,48.60
2017-08-09T13:57:16.796Z,48.40
2017-08-09T13:59:44.290Z,48.80
2017-08-09T14:02:11.797Z,48.50
2017-08-09T14:04:40.050Z,49.10
2017-08-09T14:07:07.567Z,48.50
2017-08-09T14:09:35.057Z,48.30
2017-08-09T14:12:02.598Z,48.40
2017-08-09T14:14:30.160Z,48.20
2017-08-09T14:16:57.655Z,48.50
2017-08-09T14:19:25.161Z,48.80
2017-08-09T14:21:53.502Z,48.90
2017-08-09T14:24:21.017Z,48.80
2017-08-09T14:26:48.525Z,48.80
2017-08-09T14:29:16.810Z,48.60
2017-08-09T14:31:45.069Z,48.80
2017-08-09T14:34:12.577Z,48.80
2017-08-09T14:36:40.069Z,48.90
2017-08-09T14:39:07.582Z,49.10
2017-08-09T14:41:35.147Z,49.10
2017-08-09T14:44:02.763Z,48.80
2017-08-09T14:46:31.045Z,49.30
2017-08-09T14:48:58.542Z,49.00
2017-08-09T14:51:26.067Z,49.20
2017-08-09T14:53:53.559Z,49.20
2017-08-09T14:56:21.390Z,49.10
2017-08-09T14:58:48.895Z,48.90
2017-08-09T15:01:16.411Z,48.80
2017-08-09T15:03:43.919Z,49.00
2017-08-09T15:06:11.435Z,49.10
2017-08-09T15:08:39.706Z,48.90
2017-08-09T15:13:41.978Z,49.00
2017-08-09T15:16:09.498Z,48.30
2017-08-09T15:18:37.001Z,48.70
2017-08-09T15:21:04.490Z,48.80
2017-08-09T15:23:32.014Z,48.70
2017-08-09T15:25:59.503Z,48.90
2017-08-09T15:28:27.018Z,48.80
2017-08-09T15:30:54.515Z,48.90
2017-08-09T15:33:22.030Z,48.90
2017-08-09T15:35:49.521Z,48.80
2017-08-09T15:38:17.034Z,48.80
2017-08-09T15:40:44.530Z,48.90
2017-08-09T15:43:12.043Z,49.00
2017-08-09T15:45:39.541Z,49.20
2017-08-09T15:48:07.030Z,49.10
2017-08-09T15:50:35.310Z,49.20
2017-08-09T15:53:02.810Z,49.10
2017-08-09T15:55:30.327Z,48.90
2017-08-09T15:57:58.594Z,49.20
2017-08-09T16:00:26.879Z,49.30
2017-08-09T16:02:55.133Z,49.60
2017-08-09T16:05:22.654Z,49.00
2017-08-09T16:07:50.157Z,49.00
2017-08-09T16:10:17.671Z,48.20
2017-08-09T16:12:45.157Z,48.70
2017-08-09T16:15:12.684Z,49.40
2017-08-09T16:17:40.183Z,49.10
2017-08-09T16:20:07.682Z,49.10
2017-08-09T16:22:35.195Z,49.30
2017-08-09T16:25:02.694Z,49.40
2017-08-09T16:27:30.202Z,49.40
2017-08-09T16:29:57.690Z,49.30
2017-08-09T16:32:25.961Z,49.40
2017-08-09T16:34:53.458Z,49.50
2017-08-09T16:37:20.965Z,49.80
2017-08-09T16:39:48.463Z,49.90
2017-08-09T16:42:15.978Z,50.00
2017-08-09T16:44:43.466Z,50.00
2017-08-09T16:47:10.973Z,50.00
2017-08-09T16:49:38.465Z,50.20
2017-08-09T16:52:05.985Z,50.10
2017-08-09T16:54:33.478Z,50.30
2017-08-09T16:57:00.970Z,50.60
2017-08-09T16:59:28.494Z,50.80
2017-08-09T17:01:55.992Z,51.00
2017-08-09T17:04:23.509Z,51.10
2017-08-09T17:06:51.007Z,51.40
2017-08-09T17:09:18.523Z,52.20
2017-08-09T17:11:46.018Z,51.60
2017-08-09T17:14:14.298Z,52.00
2017-08-09T17:16:42.558Z,52.10
2017-08-09T17:19:10.838Z,52.30
2017-08-09T17:21:39.097Z,52.40
2017-08-09T17:24:06.619Z,52.30
2017-08-09T17:26:34.112Z,52.40
2017-08-09T17:29:01.607Z,52.30
2017-08-09T17:31:29.123Z,52.30
2017-08-09T17:33:56.630Z,52.30
2017-08-09T17:36:24.146Z,52.40
2017-08-09T17:38:51.645Z,52.50
2017-08-09T17:41:19.154Z,52.50
2017-08-09T17:43:46.646Z,52.40
2017-08-09T17:46:14.929Z,52.70
2017-08-09T17:48:43.189Z,52.90
2017-08-09T17:51:10.706Z,52.80
2017-08-09T17:53:38.206Z,53.10
2017-08-09T17:56:05.717Z,52.90
2017-08-09T17:58:33.209Z,52.90
2017-08-09T18:01:00.694Z,53.00
2017-08-09T18:03:28.978Z,52.90
2017-08-09T18:05:57.239Z,52.90
2017-08-09T18:08:25.514Z,53.20
2017-08-09T18:10:53.000Z,52.90
2017-08-09T18:13:20.531Z,52.90
2017-08-09T18:15:48.018Z,53.10
2017-08-09T18:18:15.537Z,53.00
2017-08-09T18:20:43.042Z,53.00
2017-08-09T18:23:10.539Z,53.00
2017-08-09T18:25:38.054Z,53.10
2017-08-09T18:28:05.555Z,53.00
2017-08-09T18:30:33.062Z,53.10
2017-08-09T18:33:01.326Z,53.30
2017-08-09T18:35:29.615Z,53.20
2017-08-09T18:37:57.106Z,53.10
2017-08-09T18:40:24.610Z,53.10
2017-08-09T18:42:52.099Z,53.10
2017-08-09T18:45:19.605Z,53.00
2017-08-09T18:47:47.098Z,53.20
2017-08-09T18:50:15.376Z,53.40
2017-08-09T18:52:43.645Z,53.30
2017-08-09T18:55:11.930Z,53.50
2017-08-09T18:57:40.182Z,53.30
2017-08-09T19:00:07.674Z,53.30
2017-08-09T19:02:35.950Z,53.50
2017-08-09T19:05:04.206Z,53.60
2017-08-09T19:07:31.725Z,53.50
2017-08-09T19:09:59.223Z,54.00
2017-08-09T19:12:26.734Z,54.00
2017-08-09T19:14:54.230Z,53.80
2017-08-09T19:17:21.742Z,53.70
2017-08-09T19:19:49.241Z,53.90
2017-08-09T19:22:16.754Z,53.70
2017-08-09T19:24:44.250Z,53.70
2017-08-09T19:27:11.779Z,53.80
2017-08-09T19:29:39.275Z,53.70
2017-08-09T19:32:06.771Z,54.00
2017-08-09T19:34:34.281Z,54.20
2017-08-09T19:37:01.775Z,54.20
2017-08-09T19:39:30.062Z,55.00
2017-08-09T19:41:58.318Z,54.40
2017-08-09T19:44:26.606Z,55.10
2017-08-09T19:46:54.875Z,54.80
2017-08-09T19:49:22.386Z,54.70
2017-08-09T19:51:49.882Z,55.00
2017-08-09T19:54:17.410Z,55.30
2017-08-09T19:56:44.902Z,55.30
2017-08-09T19:59:12.402Z,55.50
2017-08-09T20:01:39.923Z,55.40
2017-08-09T20:04:07.422Z,55.60
2017-08-09T20:06:34.934Z,55.50
2017-08-09T20:09:02.439Z,55.40
2017-08-09T20:11:29.946Z,55.40
2017-08-09T20:13:57.438Z,55.60
2017-08-09T20:16:25.710Z,55.50
2017-08-09T20:18:53.971Z,55.50
2017-08-09T20:21:21.486Z,55.50
2017-08-09T20:23:48.982Z,55.70
2017-08-09T20:26:16.486Z,55.50
2017-08-09T20:28:43.974Z,55.90
2017-08-09T20:31:11.489Z,55.90
2017-08-09T20:33:39.751Z,55.90
2017-08-09T20:36:07.237Z,55.90
2017-08-09T20:38:34.751Z,55.90
2017-08-09T20:41:02.243Z,56.20
2017-08-09T20:43:30.521Z,56.40
2017-08-09T20:45:58.783Z,56.40
2017-08-09T20:48:27.061Z,56.40
2017-08-09T20:50:54.549Z,56.40
2017-08-09T20:53:22.066Z,56.40
2017-08-09T20:55:49.563Z,56.50
2017-08-09T20:58:17.073Z,56.80
2017-08-09T21:00:44.570Z,56.80
2017-08-09T21:03:12.092Z,56.70
2017-08-09T21:05:39.594Z,56.70
2017-08-09T21:08:07.085Z,56.90
2017-08-09T21:10:34.593Z,56.80
2017-08-09T21:13:02.849Z,56.80
2017-08-09T21:15:30.375Z,56.70
2017-08-09T21:17:57.866Z,56.80
2017-08-09T21:20:25.369Z,57.00
2017-08-09T21:22:52.857Z,57.20
2017-08-09T21:25:20.374Z,57.30
2017-08-09T21:27:47.931Z,57.20
2017-08-09T21:30:16.226Z,57.40
2017-08-09T21:32:43.729Z,57.40
2017-08-09T21:35:11.222Z,57.70
2017-08-09T21:37:39.498Z,57.90
2017-08-09T21:40:07.758Z,58.00
2017-08-09T21:42:35.270Z,58.00
2017-08-09T21:45:02.757Z,57.80
2017-08-09T21:47:30.270Z,57.90
2017-08-09T21:49:57.770Z,58.00
2017-08-09T21:52:25.278Z,58.00
2017-08-09T21:54:53.535Z,58.00
2017-08-09T21:57:21.058Z,57.90
2017-08-09T21:59:48.546Z,58.00
2017-08-09T22:02:16.039Z,58.10
2017-08-09T22:04:43.555Z,57.90
2017-08-09T22:07:11.051Z,58.00
2017-08-09T22:09:38.561Z,57.90
2017-08-09T22:12:06.055Z,58.00
2017-08-09T22:14:33.561Z,58.10
2017-08-09T22:17:01.063Z,58.20
2017-08-09T22:19:29.338Z,58.50
2017-08-09T22:21:56.830Z,58.10
2017-08-09T22:24:24.350Z,58.20
2017-08-09T22:26:51.851Z,58.20
2017-08-09T22:29:19.355Z,58.40
2017-08-09T22:31:46.866Z,58.30
2017-08-09T22:34:14.354Z,58.30
2017-08-09T22:36:41.863Z,58.50
2017-08-09T22:39:09.353Z,58.40
2017-08-09T22:41:36.857Z,58.40
2017-08-09T22:44:04.355Z,58.50
2017-08-09T22:46:31.870Z,58.40
2017-08-09T22:48:59.366Z,58.20
2017-08-09T22:51:26.885Z,58.20
2017-08-09T22:53:54.383Z,58.10
2017-08-09T22:56:21.874Z,58.20
2017-08-09T22:58:49.399Z,58.30
2017-08-09T23:01:16.894Z,58.60
2017-08-09T23:03:44.403Z,58.10
2017-08-09T23:06:12.666Z,58.20
2017-08-09T23:08:40.173Z,58.20
2017-08-09T23:11:07.670Z,58.30
2017-08-09T23:13:35.214Z,58.30
2017-08-09T23:16:02.708Z,58.50
2017-08-09T23:18:30.240Z,58.60
2017-08-09T23:20:57.746Z,58.50
2017-08-09T23:23:26.011Z,58.70
2017-08-09T23:25:54.293Z,58.80
2017-08-09T23:28:21.782Z,58.70
2017-08-09T23:30:49.303Z,58.80
2017-08-09T23:33:16.799Z,59.10
2017-08-09T23:35:44.310Z,59.10
2017-08-09T23:38:11.798Z,59.10
2017-08-09T23:40:39.305Z,59.30
2017-08-09T23:43:06.793Z,59.40
2017-08-09T23:45:34.305Z,59.40
2017-08-09T23:48:01.793Z,59.50
2017-08-09T23:50:29.305Z,59.50
2017-08-09T23:52:56.793Z,59.40
2017-08-09T23:55:24.309Z,59.20
2017-08-09T23:57:51.798Z,59.20
